createdAt,value
2023-03-06T00:00:47.554Z,6.31
2023-03-06T00:03:18.201Z,6.23
2023-03-06T00:05:49.177Z,6.19
2023-03-06T00:08:19.388Z,6.52
2023-03-06T00:10:51.791Z,6.42
2023-03-06T00:13:22.422Z,6.64
2023-03-06T00:15:53.068Z,6.46
2023-03-06T00:18:23.502Z,6.36
2023-03-06T00:20:54.212Z,6.37
2023-03-06T00:23:24.690Z,6.41
2023-03-06T00:25:56.437Z,6.40
2023-03-06T00:28:27.848Z,6.46
2023-03-06T00:30:58.257Z,6.32
2023-03-06T00:33:28.978Z,6.48
2023-03-06T00:35:59.410Z,6.48
2023-03-06T00:38:33.925Z,6.56
2023-03-06T00:41:12.870Z,6.37
2023-03-06T00:43:43.028Z,6.12
2023-03-06T00:46:14.089Z,6.24
2023-03-06T00:48:44.647Z,5.94
2023-03-06T00:51:15.192Z,5.87
2023-03-06T00:53:46.170Z,6.15
2023-03-06T00:56:19.967Z,5.86
2023-03-06T00:58:53.217Z,5.93
2023-03-06T01:01:24.774Z,6.07
2023-03-06T01:03:54.933Z,6.05
2023-03-06T01:06:26.179Z,5.96
2023-03-06T01:08:57.131Z,6.00
2023-03-06T01:11:29.609Z,6.32
2023-03-06T01:14:00.028Z,6.19
2023-03-06T01:16:31.106Z,6.54
2023-03-06T01:19:01.683Z,6.34
2023-03-06T01:21:32.689Z,6.21
2023-03-06T01:24:03.484Z,6.24
2023-03-06T01:26:35.472Z,6.26
2023-03-06T01:29:06.977Z,6.26
2023-03-06T01:31:37.892Z,5.91
2023-03-06T01:34:08.291Z,6.09
2023-03-06T01:36:39.448Z,6.22
2023-03-06T01:39:09.560Z,6.18
2023-03-06T01:41:42.656Z,6.23
2023-03-06T01:44:15.597Z,6.32
2023-03-06T01:46:46.692Z,6.20
2023-03-06T01:49:24.163Z,6.47
2023-03-06T01:51:56.769Z,6.40
2023-03-06T01:54:30.460Z,6.24
2023-03-06T01:57:06.831Z,6.03
2023-03-06T01:59:38.269Z,6.08
2023-03-06T02:02:09.790Z,6.27
2023-03-06T02:04:43.153Z,6.34
2023-03-06T02:07:14.323Z,6.55
2023-03-06T02:09:44.626Z,6.23
2023-03-06T02:12:20.869Z,6.22
2023-03-06T02:14:52.713Z,5.93
2023-03-06T02:17:24.775Z,6.37
2023-03-06T02:20:00.320Z,6.20
2023-03-06T02:22:36.198Z,6.10
2023-03-06T02:25:12.406Z,5.98
2023-03-06T02:27:45.052Z,5.95
2023-03-06T02:30:18.196Z,6.30
2023-03-06T02:32:50.198Z,6.39
2023-03-06T02:35:22.630Z,6.17
2023-03-06T02:37:53.104Z,6.17
2023-03-06T02:40:26.413Z,6.06
2023-03-06T02:43:00.772Z,6.25
2023-03-06T02:45:38.683Z,6.19
2023-03-06T02:48:10.580Z,5.86
2023-03-06T02:50:41.063Z,6.19
2023-03-06T02:53:15.128Z,6.22
2023-03-06T02:55:46.703Z,6.29
2023-03-06T02:58:19.937Z,6.39
2023-03-06T03:00:50.507Z,6.28
2023-03-06T03:03:21.490Z,5.98
2023-03-06T03:05:51.003Z,6.28
2023-03-06T03:08:21.478Z,6.20
2023-03-06T03:10:52.218Z,6.17
2023-03-06T03:13:23.516Z,6.39
2023-03-06T03:16:01.270Z,6.23
2023-03-06T03:18:32.996Z,5.82
2023-03-06T03:21:03.930Z,5.81
2023-03-06T03:23:33.872Z,5.98
2023-03-06T03:26:09.507Z,5.73
2023-03-06T03:28:42.362Z,6.07
2023-03-06T03:31:14.933Z,6.26
2023-03-06T03:33:45.533Z,5.89
2023-03-06T03:36:15.464Z,5.79
2023-03-06T03:38:46.013Z,6.03
2023-03-06T03:41:16.500Z,5.78
2023-03-06T03:43:48.974Z,5.96
2023-03-06T03:46:19.109Z,5.77
2023-03-06T03:48:49.793Z,6.25
2023-03-06T03:51:21.075Z,5.92
2023-03-06T03:53:51.855Z,5.68
2023-03-06T03:56:22.285Z,5.66
2023-03-06T03:58:55.890Z,5.79
2023-03-06T04:01:26.189Z,5.91
2023-03-06T04:03:57.299Z,5.95
2023-03-06T04:06:27.986Z,6.13
2023-03-06T04:08:59.185Z,6.35
2023-03-06T04:11:30.056Z,6.39
2023-03-06T04:14:03.612Z,6.38
2023-03-06T04:16:34.413Z,6.04
2023-03-06T04:19:05.189Z,6.37
2023-03-06T04:21:36.493Z,6.01
2023-03-06T04:24:07.829Z,6.30
2023-03-06T04:26:38.386Z,6.23
2023-03-06T04:29:10.067Z,6.48
2023-03-06T04:31:40.271Z,6.55
2023-03-06T04:34:12.174Z,6.49
2023-03-06T04:36:45.349Z,6.42
2023-03-06T04:39:16.565Z,6.40
2023-03-06T04:41:47.607Z,6.13
2023-03-06T04:44:20.114Z,5.97
2023-03-06T04:46:50.414Z,6.35
2023-03-06T04:49:21.295Z,6.37
2023-03-06T04:51:51.380Z,6.26
2023-03-06T04:54:21.953Z,6.49
2023-03-06T04:56:53.693Z,6.60
2023-03-06T04:59:26.072Z,6.43
2023-03-06T05:01:57.068Z,6.60
2023-03-06T05:04:27.398Z,6.38
2023-03-06T05:06:58.478Z,5.94
2023-03-06T05:09:29.463Z,6.21
2023-03-06T05:12:00.271Z,6.46
2023-03-06T05:14:34.106Z,5.49
2023-03-06T05:17:04.016Z,6.25
2023-03-06T05:19:34.765Z,6.40
2023-03-06T05:22:06.170Z,6.30
2023-03-06T05:24:36.707Z,6.11
2023-03-06T05:27:07.371Z,6.48
2023-03-06T05:29:39.708Z,6.03
2023-03-06T05:32:11.578Z,5.47
2023-03-06T05:34:42.996Z,5.73
2023-03-06T05:37:13.992Z,5.55
2023-03-06T05:39:45.792Z,5.55
2023-03-06T05:42:20.318Z,5.67
2023-03-06T05:44:52.730Z,5.50
2023-03-06T05:47:22.541Z,6.12
2023-03-06T05:49:53.731Z,5.80
2023-03-06T05:52:23.528Z,6.01
2023-03-06T05:54:55.691Z,6.00
2023-03-06T05:57:26.440Z,6.01
2023-03-06T05:59:58.940Z,6.27
2023-03-06T06:02:29.642Z,6.05
2023-03-06T06:04:59.517Z,6.01
2023-03-06T06:07:29.882Z,5.97
2023-03-06T06:10:02.338Z,5.83
2023-03-06T06:12:33.896Z,6.33
2023-03-06T06:15:07.632Z,6.29
2023-03-06T06:17:37.582Z,6.46
2023-03-06T06:20:09.395Z,6.23
2023-03-06T06:22:40.382Z,6.65
2023-03-06T06:25:11.343Z,6.58
2023-03-06T06:27:41.994Z,6.30
2023-03-06T06:30:17.061Z,6.34
2023-03-06T06:32:46.578Z,6.09
2023-03-06T06:35:16.948Z,6.05
2023-03-06T06:37:47.442Z,5.26
2023-03-06T06:40:18.584Z,5.87
2023-03-06T06:42:49.042Z,6.40
2023-03-06T06:45:21.163Z,6.03
2023-03-06T06:47:53.342Z,5.73
2023-03-06T06:50:23.792Z,6.05
2023-03-06T06:52:53.922Z,6.41
2023-03-06T06:55:24.452Z,6.29
2023-03-06T06:57:54.724Z,5.95
2023-03-06T07:00:27.224Z,6.19
2023-03-06T07:02:57.726Z,6.21
2023-03-06T07:05:28.307Z,6.33
2023-03-06T07:07:59.344Z,5.94
2023-03-06T07:10:29.932Z,5.91
2023-03-06T07:13:00.973Z,6.33
2023-03-06T07:15:35.567Z,6.13
2023-03-06T07:18:06.377Z,6.23
2023-03-06T07:20:37.143Z,6.23
2023-03-06T07:23:09.298Z,6.33
2023-03-06T07:25:40.717Z,6.31
2023-03-06T07:28:12.685Z,6.11
2023-03-06T07:30:45.287Z,6.25
2023-03-06T07:33:16.613Z,6.09
2023-03-06T07:35:47.334Z,6.33
2023-03-06T07:38:18.084Z,6.09
2023-03-06T07:40:53.586Z,5.87
2023-03-06T07:43:23.767Z,5.44
2023-03-06T07:46:00.854Z,5.40
2023-03-06T07:48:31.187Z,6.04
2023-03-06T07:51:03.617Z,5.74
2023-03-06T07:53:34.600Z,6.00
2023-03-06T07:56:09.398Z,5.47
2023-03-06T07:58:40.728Z,5.44
2023-03-06T08:01:13.928Z,5.63
2023-03-06T08:03:44.735Z,6.22
2023-03-06T08:06:16.739Z,5.76
2023-03-06T08:08:49.035Z,6.10
2023-03-06T08:11:21.725Z,6.10
2023-03-06T08:13:53.458Z,6.48
2023-03-06T08:16:26.789Z,6.35
2023-03-06T08:18:57.908Z,6.23
2023-03-06T08:21:29.470Z,6.62
2023-03-06T08:24:00.494Z,6.41
2023-03-06T08:26:34.079Z,6.47
2023-03-06T08:29:04.629Z,6.27
2023-03-06T08:31:38.228Z,6.00
2023-03-06T08:34:09.873Z,6.53
2023-03-06T08:36:40.878Z,6.59
2023-03-06T08:39:14.860Z,6.76
2023-03-06T08:41:45.501Z,6.40
2023-03-06T08:44:15.793Z,6.48
2023-03-06T08:46:47.626Z,6.71
2023-03-06T08:49:17.622Z,6.96
2023-03-06T08:51:48.452Z,6.47
2023-03-06T08:54:19.274Z,6.71
2023-03-06T08:56:49.456Z,6.90
2023-03-06T08:59:19.630Z,6.82
2023-03-06T09:01:56.378Z,6.76
2023-03-06T09:04:27.276Z,6.78
2023-03-06T09:06:58.570Z,6.85
2023-03-06T09:09:29.820Z,7.01
2023-03-06T09:12:00.613Z,6.90
2023-03-06T09:14:31.253Z,7.03
2023-03-06T09:17:03.254Z,7.16
2023-03-06T09:19:34.049Z,7.14
2023-03-06T09:22:04.404Z,7.19
2023-03-06T09:24:34.935Z,6.97
2023-03-06T09:27:06.543Z,6.87
2023-03-06T09:29:36.820Z,7.14
2023-03-06T09:32:12.026Z,6.84
2023-03-06T09:34:43.347Z,6.94
2023-03-06T09:37:13.971Z,7.03
2023-03-06T09:39:45.600Z,7.11
2023-03-06T09:42:19.473Z,7.11
2023-03-06T09:44:53.175Z,6.98
2023-03-06T09:47:37.644Z,6.99
2023-03-06T09:50:31.093Z,7.11
2023-03-06T09:53:33.603Z,7.30
2023-03-06T09:56:05.666Z,7.59
2023-03-06T09:58:43.165Z,7.32
2023-03-06T10:01:20.136Z,7.33
2023-03-06T10:03:56.501Z,7.96
2023-03-06T10:06:30.216Z,8.01
2023-03-06T10:09:05.341Z,8.06
2023-03-06T10:11:37.827Z,8.12
2023-03-06T10:14:19.772Z,8.27
2023-03-06T10:16:49.955Z,8.46
2023-03-06T10:19:23.686Z,8.36
2023-03-06T10:21:59.552Z,8.22
2023-03-06T10:24:47.743Z,8.17
2023-03-06T10:27:34.010Z,8.34
2023-03-06T10:30:13.100Z,8.35
2023-03-06T10:32:52.031Z,7.73
2023-03-06T10:35:30.524Z,7.98
2023-03-06T10:38:04.125Z,8.02
2023-03-06T10:40:42.586Z,8.01
2023-03-06T10:43:13.985Z,8.10
2023-03-06T10:45:50.715Z,7.80
2023-03-06T10:48:24.090Z,7.73
2023-03-06T10:51:04.734Z,7.95
2023-03-06T10:53:52.039Z,8.34
2023-03-06T10:56:33.941Z,8.81
2023-03-06T10:59:13.210Z,8.85
2023-03-06T11:01:45.501Z,8.94
2023-03-06T11:04:29.733Z,8.41
2023-03-06T11:07:17.089Z,8.20
2023-03-06T11:10:02.174Z,8.36
2023-03-06T11:12:34.519Z,8.57
2023-03-06T11:15:21.215Z,8.83
2023-03-06T11:17:58.687Z,8.81
2023-03-06T11:20:48.484Z,8.90
2023-03-06T11:23:27.013Z,8.63
2023-03-06T11:26:00.048Z,8.55
2023-03-06T11:28:32.416Z,8.52
2023-03-06T11:31:06.491Z,8.61
2023-03-06T11:33:41.375Z,8.71
2023-03-06T11:36:16.696Z,8.86
2023-03-06T11:38:52.314Z,9.23
2023-03-06T11:41:28.591Z,9.09
2023-03-06T11:44:06.964Z,9.23
2023-03-06T11:46:41.679Z,9.08
2023-03-06T11:49:18.862Z,8.80
2023-03-06T11:51:53.798Z,8.83
2023-03-06T11:54:26.373Z,9.02
2023-03-06T11:57:00.812Z,9.13
2023-03-06T11:59:52.783Z,9.14
2023-03-06T12:02:35.056Z,8.90
2023-03-06T12:05:23.004Z,9.12
2023-03-06T12:07:59.274Z,8.71
2023-03-06T12:10:36.635Z,8.96
2023-03-06T12:13:28.099Z,8.89
2023-03-06T12:16:12.000Z,8.88
2023-03-06T12:18:53.444Z,8.62
2023-03-06T12:21:31.054Z,9.08
2023-03-06T12:24:23.752Z,9.15
2023-03-06T12:27:09.858Z,9.15
2023-03-06T12:30:04.178Z,8.97
2023-03-06T12:32:45.800Z,9.47
2023-03-06T12:35:50.433Z,9.26
2023-03-06T12:38:41.235Z,9.34
2023-03-06T12:41:20.298Z,9.44
2023-03-06T12:44:19.047Z,9.45
2023-03-06T12:46:51.883Z,9.17
2023-03-06T12:49:32.476Z,9.40
2023-03-06T12:52:03.730Z,9.19
2023-03-06T12:54:40.843Z,9.30
2023-03-06T12:57:12.911Z,9.23
2023-03-06T12:59:48.291Z,9.29
2023-03-06T13:02:47.960Z,9.31
2023-03-06T13:05:37.632Z,9.43
2023-03-06T13:08:37.613Z,9.33
2023-03-06T13:11:36.389Z,9.05
2023-03-06T13:14:26.663Z,9.15
2023-03-06T13:17:29.172Z,9.20
2023-03-06T13:20:35.512Z,9.45
2023-03-06T13:23:44.353Z,9.48
2023-03-06T13:26:51.664Z,9.47
2023-03-06T13:30:02.221Z,9.35
2023-03-06T13:32:36.579Z,9.65
2023-03-06T13:35:45.341Z,9.44
2023-03-06T13:38:33.693Z,9.28
2023-03-06T13:41:35.617Z,9.43
2023-03-06T13:44:41.731Z,9.37
2023-03-06T13:47:25.947Z,9.68
2023-03-06T13:49:57.817Z,9.56
2023-03-06T13:52:37.545Z,9.42
2023-03-06T13:55:16.988Z,9.64
2023-03-06T13:57:56.198Z,9.28
2023-03-06T14:00:48.641Z,9.57
2023-03-06T14:04:03.860Z,9.81
2023-03-06T14:07:06.646Z,9.22
2023-03-06T14:09:40.160Z,9.26
2023-03-06T14:12:17.110Z,9.10
2023-03-06T14:14:53.094Z,9.34
2023-03-06T14:17:28.824Z,9.31
2023-03-06T14:20:02.562Z,9.31
2023-03-06T14:22:34.892Z,9.18
2023-03-06T14:25:09.708Z,9.20
2023-03-06T14:27:43.997Z,9.33
2023-03-06T14:30:17.623Z,9.29
2023-03-06T14:32:47.630Z,8.97
2023-03-06T14:35:30.125Z,9.23
2023-03-06T14:38:04.801Z,9.45
2023-03-06T14:40:37.895Z,9.56
2023-03-06T14:43:27.089Z,9.35
2023-03-06T14:45:59.811Z,9.53
2023-03-06T14:48:41.658Z,9.34
2023-03-06T14:51:19.112Z,9.56
2023-03-06T14:53:53.003Z,9.52
2023-03-06T14:56:25.076Z,9.62
2023-03-06T14:58:57.999Z,9.56
2023-03-06T15:01:32.944Z,9.65
2023-03-06T15:04:04.601Z,9.85
2023-03-06T15:06:38.201Z,9.45
2023-03-06T15:09:16.772Z,9.43
2023-03-06T15:11:58.182Z,9.09
2023-03-06T15:14:37.871Z,9.26
2023-03-06T15:17:33.399Z,9.35
2023-03-06T15:20:04.195Z,9.55
2023-03-06T15:22:38.259Z,9.46
2023-03-06T15:25:26.976Z,9.50
2023-03-06T15:27:58.467Z,9.44
2023-03-06T15:30:32.881Z,9.63
2023-03-06T15:33:25.538Z,9.64
2023-03-06T15:35:57.620Z,9.49
2023-03-06T15:38:41.173Z,9.24
2023-03-06T15:41:34.943Z,9.13
2023-03-06T15:44:11.411Z,9.14
2023-03-06T15:46:41.956Z,9.13
2023-03-06T15:49:19.704Z,9.16
2023-03-06T15:51:49.938Z,8.96
2023-03-06T15:54:20.339Z,8.60
2023-03-06T15:56:53.800Z,8.91
2023-03-06T15:59:26.771Z,8.69
2023-03-06T16:01:57.460Z,8.87
2023-03-06T16:04:28.106Z,8.70
2023-03-06T16:07:03.860Z,8.63
2023-03-06T16:09:34.490Z,8.64
2023-03-06T16:12:07.647Z,8.64
2023-03-06T16:14:38.256Z,8.76
2023-03-06T16:17:09.287Z,8.61
2023-03-06T16:19:39.660Z,8.92
2023-03-06T16:22:10.184Z,8.90
2023-03-06T16:24:41.323Z,8.78
2023-03-06T16:27:20.848Z,8.87
2023-03-06T16:29:51.654Z,8.93
2023-03-06T16:32:21.709Z,9.03
2023-03-06T16:34:53.390Z,8.98
2023-03-06T16:37:24.663Z,9.00
2023-03-06T16:39:54.753Z,9.12
2023-03-06T16:42:26.851Z,9.01
2023-03-06T16:44:57.551Z,9.14
2023-03-06T16:47:28.405Z,9.06
2023-03-06T16:50:02.340Z,9.03
2023-03-06T16:52:33.582Z,8.70
2023-03-06T16:55:04.535Z,8.85
2023-03-06T16:57:36.218Z,8.63
2023-03-06T17:00:08.636Z,8.67
2023-03-06T17:02:39.086Z,8.94
2023-03-06T17:05:11.958Z,8.76
2023-03-06T17:07:42.615Z,8.82
2023-03-06T17:10:16.266Z,8.66
2023-03-06T17:12:48.001Z,8.55
2023-03-06T17:15:18.793Z,8.76
2023-03-06T17:17:49.706Z,8.82
2023-03-06T17:20:21.637Z,8.74
2023-03-06T17:22:51.924Z,8.58
2023-03-06T17:25:22.736Z,8.68
2023-03-06T17:27:54.853Z,8.94
2023-03-06T17:30:25.883Z,8.93
2023-03-06T17:32:58.194Z,8.79
2023-03-06T17:35:28.034Z,8.60
2023-03-06T17:37:59.605Z,8.73
2023-03-06T17:40:30.622Z,8.73
2023-03-06T17:43:02.088Z,8.59
2023-03-06T17:45:34.577Z,8.89
2023-03-06T17:48:05.562Z,8.60
2023-03-06T17:50:35.951Z,8.71
2023-03-06T17:53:06.087Z,8.75
2023-03-06T17:55:35.929Z,8.74
2023-03-06T17:58:12.278Z,8.58
2023-03-06T18:00:43.407Z,8.75
2023-03-06T18:03:13.541Z,8.87
2023-03-06T18:05:44.979Z,8.81
2023-03-06T18:08:15.360Z,8.83
2023-03-06T18:10:46.548Z,8.74
2023-03-06T18:13:18.981Z,8.66
2023-03-06T18:15:49.390Z,8.54
2023-03-06T18:18:20.809Z,8.66
2023-03-06T18:20:51.499Z,8.63
2023-03-06T18:23:22.883Z,8.67
2023-03-06T18:25:54.458Z,8.57
2023-03-06T18:28:26.649Z,8.47
2023-03-06T18:30:57.069Z,8.45
2023-03-06T18:33:27.764Z,8.49
2023-03-06T18:35:58.419Z,8.57
2023-03-06T18:38:28.765Z,8.66
2023-03-06T18:41:00.898Z,8.63
2023-03-06T18:43:33.225Z,8.59
2023-03-06T18:46:03.921Z,8.63
2023-03-06T18:48:34.570Z,8.42
2023-03-06T18:51:09.412Z,8.40
2023-03-06T18:53:40.888Z,8.23
2023-03-06T18:56:16.391Z,8.33
2023-03-06T18:58:55.301Z,8.43
2023-03-06T19:01:26.141Z,8.62
2023-03-06T19:03:57.506Z,8.42
2023-03-06T19:06:28.073Z,8.49
2023-03-06T19:09:02.477Z,8.37
2023-03-06T19:11:33.937Z,8.56
2023-03-06T19:14:05.437Z,8.44
2023-03-06T19:16:37.259Z,8.34
2023-03-06T19:19:08.332Z,8.16
2023-03-06T19:21:38.681Z,8.20
2023-03-06T19:24:14.387Z,8.18
2023-03-06T19:26:44.809Z,8.32
2023-03-06T19:29:16.532Z,8.41
2023-03-06T19:31:47.381Z,8.36
2023-03-06T19:34:17.218Z,8.21
2023-03-06T19:36:48.344Z,8.28
2023-03-06T19:39:20.666Z,8.14
2023-03-06T19:41:51.640Z,8.06
2023-03-06T19:44:23.554Z,7.96
2023-03-06T19:46:54.044Z,8.00
2023-03-06T19:49:24.294Z,8.02
2023-03-06T19:51:54.493Z,8.24
2023-03-06T19:54:25.986Z,8.26
2023-03-06T19:56:56.267Z,8.10
2023-03-06T19:59:28.662Z,8.29
2023-03-06T20:01:58.897Z,8.06
2023-03-06T20:04:32.774Z,8.18
2023-03-06T20:07:05.723Z,8.04
2023-03-06T20:09:36.466Z,7.88
2023-03-06T20:12:08.279Z,7.94
2023-03-06T20:14:41.379Z,7.97
2023-03-06T20:17:11.825Z,7.99
2023-03-06T20:19:43.146Z,7.85
2023-03-06T20:22:14.312Z,7.91
2023-03-06T20:24:44.533Z,7.88
2023-03-06T20:27:14.852Z,7.81
2023-03-06T20:29:47.346Z,7.92
2023-03-06T20:32:17.737Z,7.87
2023-03-06T20:34:50.290Z,7.72
2023-03-06T20:37:20.704Z,7.95
2023-03-06T20:39:52.393Z,7.89
2023-03-06T20:42:22.135Z,7.88
2023-03-06T20:44:53.430Z,7.92
2023-03-06T20:47:24.550Z,8.07
2023-03-06T20:49:56.947Z,8.18
2023-03-06T20:52:27.124Z,8.06
2023-03-06T20:54:57.090Z,8.19
2023-03-06T20:57:27.517Z,7.66
2023-03-06T20:59:59.806Z,7.94
2023-03-06T21:02:30.510Z,7.87
2023-03-06T21:05:01.538Z,7.62
2023-03-06T21:07:31.642Z,7.77
2023-03-06T21:10:02.405Z,7.72
2023-03-06T21:12:32.886Z,7.77
2023-03-06T21:15:05.090Z,7.70
2023-03-06T21:17:35.636Z,7.74
2023-03-06T21:20:07.514Z,7.58
2023-03-06T21:22:38.238Z,7.55
2023-03-06T21:25:09.368Z,7.49
2023-03-06T21:27:39.535Z,7.53
2023-03-06T21:30:14.110Z,7.57
2023-03-06T21:32:45.226Z,7.57
2023-03-06T21:35:15.956Z,7.46
2023-03-06T21:37:47.344Z,7.76
2023-03-06T21:40:17.204Z,7.89
2023-03-06T21:42:47.327Z,7.59
2023-03-06T21:45:18.451Z,7.57
2023-03-06T21:47:50.835Z,7.54
2023-03-06T21:50:22.481Z,7.53
2023-03-06T21:52:53.593Z,7.41
2023-03-06T21:55:24.945Z,7.35
2023-03-06T21:57:56.021Z,7.51
2023-03-06T22:00:28.591Z,7.74
2023-03-06T22:03:00.385Z,7.85
2023-03-06T22:05:31.923Z,7.77
2023-03-06T22:08:02.474Z,7.20
2023-03-06T22:10:32.581Z,7.28
2023-03-06T22:13:02.890Z,7.72
2023-03-06T22:15:34.841Z,7.39
2023-03-06T22:18:05.757Z,7.89
2023-03-06T22:20:36.180Z,7.72
2023-03-06T22:23:06.746Z,7.81
2023-03-06T22:25:38.399Z,7.85
2023-03-06T22:28:08.515Z,8.03
2023-03-06T22:30:40.224Z,7.97
2023-03-06T22:33:10.967Z,8.12
2023-03-06T22:35:41.346Z,7.63
2023-03-06T22:38:12.015Z,7.64
2023-03-06T22:40:41.743Z,7.26
2023-03-06T22:43:11.861Z,7.37
2023-03-06T22:45:43.891Z,7.76
2023-03-06T22:48:14.189Z,7.36
2023-03-06T22:50:44.914Z,7.51
2023-03-06T22:53:15.314Z,7.60
2023-03-06T22:55:45.825Z,7.85
2023-03-06T22:58:15.957Z,7.66
2023-03-06T23:00:48.229Z,7.76
2023-03-06T23:03:18.665Z,7.39
2023-03-06T23:05:49.278Z,7.40
2023-03-06T23:08:19.792Z,7.35
2023-03-06T23:10:50.397Z,7.23
2023-03-06T23:13:20.444Z,7.40
2023-03-06T23:15:52.545Z,7.69
2023-03-06T23:18:23.012Z,7.91
2023-03-06T23:20:53.379Z,7.70
2023-03-06T23:23:24.977Z,7.66
2023-03-06T23:26:00.487Z,7.80
2023-03-06T23:28:30.900Z,7.84
2023-03-06T23:31:03.220Z,7.75
2023-03-06T23:33:33.605Z,7.59
2023-03-06T23:36:06.470Z,7.69
2023-03-06T23:38:37.321Z,7.93
2023-03-06T23:41:09.750Z,7.84
2023-03-06T23:43:40.106Z,7.75
2023-03-06T23:46:12.112Z,7.68
2023-03-06T23:48:43.595Z,7.77
2023-03-06T23:51:17.497Z,7.75
2023-03-06T23:53:49.174Z,7.61
2023-03-06T23:56:20.541Z,7.45
2023-03-06T23:58:51.522Z,7.50
